sensor_id;sensor_type;location;lat;lon;timestamp;P1;durP1;ratioP1;P2;durP2;ratioP2
50988;SDS011;37008;52.210;21.112;2023-04-25T00:01:39;15.35;;;13.43;;
50988;SDS011;37008;52.210;21.112;2023-04-25T00:04:05;23.50;;;13.40;;
50988;SDS011;37008;52.210;21.112;2023-04-25T00:06:31;15.95;;;14.10;;
50988;SDS011;37008;52.210;21.112;2023-04-25T00:08:57;16.33;;;14.45;;
50988;SDS011;37008;52.210;21.112;2023-04-25T00:11:23;18.27;;;14.23;;
50988;SDS011;37008;52.210;21.112;2023-04-25T00:13:49;18.95;;;14.40;;
50988;SDS011;37008;52.210;21.112;2023-04-25T00:16:19;18.88;;;14.65;;
50988;SDS011;37008;52.210;21.112;2023-04-25T00:18:45;20.13;;;14.85;;
50988;SDS011;37008;52.210;21.112;2023-04-25T00:21:16;16.05;;;14.35;;
50988;SDS011;37008;52.210;21.112;2023-04-25T00:23:43;20.40;;;14.52;;
50988;SDS011;37008;52.210;21.112;2023-04-25T00:26:10;19.13;;;15.07;;
50988;SDS011;37008;52.210;21.112;2023-04-25T00:28:36;17.33;;;15.48;;
50988;SDS011;37008;52.210;21.112;2023-04-25T00:31:02;18.20;;;15.40;;
50988;SDS011;37008;52.210;21.112;2023-04-25T00:33:28;19.38;;;15.02;;
50988;SDS011;37008;52.210;21.112;2023-04-25T00:35:54;19.98;;;15.43;;
50988;SDS011;37008;52.210;21.112;2023-04-25T00:38:20;22.63;;;16.58;;
50988;SDS011;37008;52.210;21.112;2023-04-25T00:40:46;22.42;;;16.92;;
50988;SDS011;37008;52.210;21.112;2023-04-25T00:43:12;24.50;;;17.20;;
50988;SDS011;37008;52.210;21.112;2023-04-25T00:45:38;21.08;;;15.60;;
50988;SDS011;37008;52.210;21.112;2023-04-25T00:48:04;21.25;;;16.50;;
50988;SDS011;37008;52.210;21.112;2023-04-25T00:50:30;18.25;;;16.27;;
50988;SDS011;37008;52.210;21.112;2023-04-25T00:52:58;20.92;;;16.42;;
50988;SDS011;37008;52.210;21.112;2023-04-25T00:55:23;19.33;;;15.85;;
50988;SDS011;37008;52.210;21.112;2023-04-25T00:57:49;22.02;;;16.73;;
50988;SDS011;37008;52.210;21.112;2023-04-25T01:00:15;19.42;;;16.40;;
50988;SDS011;37008;52.210;21.112;2023-04-25T01:02:41;18.02;;;16.13;;
50988;SDS011;37008;52.210;21.112;2023-04-25T01:05:07;18.70;;;16.50;;
50988;SDS011;37008;52.210;21.112;2023-04-25T01:07:33;29.48;;;17.23;;
50988;SDS011;37008;52.210;21.112;2023-04-25T01:09:59;20.20;;;16.30;;
50988;SDS011;37008;52.210;21.112;2023-04-25T01:12:26;20.48;;;17.63;;
50988;SDS011;37008;52.210;21.112;2023-04-25T01:14:51;20.05;;;17.35;;
50988;SDS011;37008;52.210;21.112;2023-04-25T01:17:17;21.63;;;16.80;;
50988;SDS011;37008;52.210;21.112;2023-04-25T01:19:43;18.60;;;16.60;;
50988;SDS011;37008;52.210;21.112;2023-04-25T01:22:11;21.08;;;16.63;;
50988;SDS011;37008;52.210;21.112;2023-04-25T01:24:36;19.17;;;16.15;;
50988;SDS011;37008;52.210;21.112;2023-04-25T01:27:02;19.83;;;16.67;;
50988;SDS011;37008;52.210;21.112;2023-04-25T01:29:29;18.70;;;16.67;;
50988;SDS011;37008;52.210;21.112;2023-04-25T01:31:55;20.58;;;17.45;;
50988;SDS011;37008;52.210;21.112;2023-04-25T01:34:23;22.13;;;18.00;;
50988;SDS011;37008;52.210;21.112;2023-04-25T01:36:49;20.63;;;18.48;;
50988;SDS011;37008;52.210;21.112;2023-04-25T01:39:15;23.65;;;18.83;;
50988;SDS011;37008;52.210;21.112;2023-04-25T01:41:48;23.00;;;18.30;;
50988;SDS011;37008;52.210;21.112;2023-04-25T01:44:14;20.48;;;18.27;;
50988;SDS011;37008;52.210;21.112;2023-04-25T01:46:40;22.13;;;19.15;;
50988;SDS011;37008;52.210;21.112;2023-04-25T01:49:06;26.30;;;18.75;;
50988;SDS011;37008;52.210;21.112;2023-04-25T01:51:32;28.67;;;21.23;;
50988;SDS011;37008;52.210;21.112;2023-04-25T01:53:58;30.58;;;21.10;;
50988;SDS011;37008;52.210;21.112;2023-04-25T01:56:24;25.17;;;20.70;;
50988;SDS011;37008;52.210;21.112;2023-04-25T01:58:50;27.60;;;22.70;;
50988;SDS011;37008;52.210;21.112;2023-04-25T02:01:16;23.85;;;21.23;;
50988;SDS011;37008;52.210;21.112;2023-04-25T02:03:42;26.15;;;23.05;;
50988;SDS011;37008;52.210;21.112;2023-04-25T02:06:08;24.92;;;22.23;;
50988;SDS011;37008;52.210;21.112;2023-04-25T02:08:33;27.65;;;23.45;;
50988;SDS011;37008;52.210;21.112;2023-04-25T02:10:59;24.92;;;22.27;;
50988;SDS011;37008;52.210;21.112;2023-04-25T02:13:25;23.98;;;21.48;;
50988;SDS011;37008;52.210;21.112;2023-04-25T02:15:50;29.50;;;23.58;;
50988;SDS011;37008;52.210;21.112;2023-04-25T02:18:16;26.52;;;23.00;;
50988;SDS011;37008;52.210;21.112;2023-04-25T02:20:42;26.42;;;23.63;;
50988;SDS011;37008;52.210;21.112;2023-04-25T02:23:09;26.25;;;22.17;;
50988;SDS011;37008;52.210;21.112;2023-04-25T02:25:34;25.55;;;22.48;;
50988;SDS011;37008;52.210;21.112;2023-04-25T02:28:00;26.83;;;22.83;;
50988;SDS011;37008;52.210;21.112;2023-04-25T02:30:26;29.27;;;22.42;;
50988;SDS011;37008;52.210;21.112;2023-04-25T02:32:51;26.30;;;22.25;;
50988;SDS011;37008;52.210;21.112;2023-04-25T02:35:17;26.77;;;22.20;;
50988;SDS011;37008;52.210;21.112;2023-04-25T02:37:43;27.30;;;22.33;;
50988;SDS011;37008;52.210;21.112;2023-04-25T02:40:09;24.35;;;21.80;;
50988;SDS011;37008;52.210;21.112;2023-04-25T02:42:35;23.33;;;20.60;;
50988;SDS011;37008;52.210;21.112;2023-04-25T02:45:01;25.85;;;21.60;;
50988;SDS011;37008;52.210;21.112;2023-04-25T02:47:27;23.42;;;20.23;;
50988;SDS011;37008;52.210;21.112;2023-04-25T02:49:53;22.35;;;20.05;;
50988;SDS011;37008;52.210;21.112;2023-04-25T02:52:18;22.83;;;20.33;;
50988;SDS011;37008;52.210;21.112;2023-04-25T02:54:44;22.23;;;19.88;;
50988;SDS011;37008;52.210;21.112;2023-04-25T02:57:09;25.02;;;19.35;;
50988;SDS011;37008;52.210;21.112;2023-04-25T02:59:35;21.00;;;18.48;;
50988;SDS011;37008;52.210;21.112;2023-04-25T03:02:00;21.20;;;19.00;;
50988;SDS011;37008;52.210;21.112;2023-04-25T03:04:26;20.48;;;17.00;;
50988;SDS011;37008;52.210;21.112;2023-04-25T03:06:52;21.48;;;17.00;;
50988;SDS011;37008;52.210;21.112;2023-04-25T03:09:18;18.35;;;16.52;;
50988;SDS011;37008;52.210;21.112;2023-04-25T03:11:44;18.63;;;15.55;;
50988;SDS011;37008;52.210;21.112;2023-04-25T03:14:10;20.77;;;15.93;;
50988;SDS011;37008;52.210;21.112;2023-04-25T03:16:36;17.70;;;15.77;;
50988;SDS011;37008;52.210;21.112;2023-04-25T03:19:02;21.95;;;15.95;;
50988;SDS011;37008;52.210;21.112;2023-04-25T03:21:28;18.63;;;15.55;;
50988;SDS011;37008;52.210;21.112;2023-04-25T03:23:56;18.55;;;15.60;;
50988;SDS011;37008;52.210;21.112;2023-04-25T03:26:22;17.15;;;15.23;;
50988;SDS011;37008;52.210;21.112;2023-04-25T03:28:48;17.10;;;14.70;;
50988;SDS011;37008;52.210;21.112;2023-04-25T03:31:13;21.17;;;14.95;;
50988;SDS011;37008;52.210;21.112;2023-04-25T03:33:39;17.63;;;14.90;;
50988;SDS011;37008;52.210;21.112;2023-04-25T03:36:05;16.42;;;14.13;;
50988;SDS011;37008;52.210;21.112;2023-04-25T03:38:31;17.13;;;14.65;;
50988;SDS011;37008;52.210;21.112;2023-04-25T03:40:56;17.20;;;14.15;;
50988;SDS011;37008;52.210;21.112;2023-04-25T03:43:22;15.43;;;13.43;;
50988;SDS011;37008;52.210;21.112;2023-04-25T03:45:48;19.25;;;14.43;;
50988;SDS011;37008;52.210;21.112;2023-04-25T03:48:13;19.73;;;14.35;;
50988;SDS011;37008;52.210;21.112;2023-04-25T03:50:39;18.73;;;14.10;;
50988;SDS011;37008;52.210;21.112;2023-04-25T03:53:05;17.10;;;13.30;;
50988;SDS011;37008;52.210;21.112;2023-04-25T03:55:30;19.02;;;13.07;;
50988;SDS011;37008;52.210;21.112;2023-04-25T03:57:57;22.40;;;15.05;;
50988;SDS011;37008;52.210;21.112;2023-04-25T04:00:23;14.38;;;12.82;;
50988;SDS011;37008;52.210;21.112;2023-04-25T04:02:49;17.90;;;13.02;;
50988;SDS011;37008;52.210;21.112;2023-04-25T04:05:15;20.70;;;13.05;;
50988;SDS011;37008;52.210;21.112;2023-04-25T04:07:40;19.58;;;13.52;;
50988;SDS011;37008;52.210;21.112;2023-04-25T04:10:07;15.23;;;13.48;;
50988;SDS011;37008;52.210;21.112;2023-04-25T04:12:37;13.55;;;12.15;;
50988;SDS011;37008;52.210;21.112;2023-04-25T04:15:03;15.20;;;11.80;;
50988;SDS011;37008;52.210;21.112;2023-04-25T04:17:30;19.00;;;12.23;;
50988;SDS011;37008;52.210;21.112;2023-04-25T04:19:56;16.45;;;12.52;;
50988;SDS011;37008;52.210;21.112;2023-04-25T04:22:22;18.90;;;11.25;;
50988;SDS011;37008;52.210;21.112;2023-04-25T04:24:49;14.80;;;11.75;;
50988;SDS011;37008;52.210;21.112;2023-04-25T04:27:15;16.33;;;12.05;;
50988;SDS011;37008;52.210;21.112;2023-04-25T04:29:42;21.58;;;12.45;;
50988;SDS011;37008;52.210;21.112;2023-04-25T04:32:08;22.48;;;12.88;;
50988;SDS011;37008;52.210;21.112;2023-04-25T04:34:34;16.48;;;11.07;;
50988;SDS011;37008;52.210;21.112;2023-04-25T04:36:59;16.80;;;11.30;;
50988;SDS011;37008;52.210;21.112;2023-04-25T04:39:25;24.05;;;11.77;;
50988;SDS011;37008;52.210;21.112;2023-04-25T04:41:51;27.30;;;12.13;;
50988;SDS011;37008;52.210;21.112;2023-04-25T04:44:17;16.13;;;11.23;;
50988;SDS011;37008;52.210;21.112;2023-04-25T04:46:43;18.48;;;10.90;;
50988;SDS011;37008;52.210;21.112;2023-04-25T04:49:09;16.35;;;10.15;;
50988;SDS011;37008;52.210;21.112;2023-04-25T04:51:36;18.35;;;10.63;;
50988;SDS011;37008;52.210;21.112;2023-04-25T04:54:02;13.93;;;10.40;;
50988;SDS011;37008;52.210;21.112;2023-04-25T04:56:28;14.70;;;10.45;;
50988;SDS011;37008;52.210;21.112;2023-04-25T04:58:56;12.13;;;10.05;;
50988;SDS011;37008;52.210;21.112;2023-04-25T05:01:22;13.05;;;10.07;;
50988;SDS011;37008;52.210;21.112;2023-04-25T05:03:48;11.30;;;9.70;;
50988;SDS011;37008;52.210;21.112;2023-04-25T05:06:14;11.57;;;9.27;;
50988;SDS011;37008;52.210;21.112;2023-04-25T05:08:41;12.43;;;9.75;;
50988;SDS011;37008;52.210;21.112;2023-04-25T05:11:06;12.10;;;9.45;;
50988;SDS011;37008;52.210;21.112;2023-04-25T05:13:32;11.27;;;9.10;;
50988;SDS011;37008;52.210;21.112;2023-04-25T05:15:57;12.45;;;9.05;;
50988;SDS011;37008;52.210;21.112;2023-04-25T05:18:23;11.88;;;9.95;;
50988;SDS011;37008;52.210;21.112;2023-04-25T05:20:48;11.57;;;8.82;;
50988;SDS011;37008;52.210;21.112;2023-04-25T05:23:14;13.50;;;9.52;;
50988;SDS011;37008;52.210;21.112;2023-04-25T05:25:41;17.02;;;9.75;;
50988;SDS011;37008;52.210;21.112;2023-04-25T05:28:07;14.98;;;9.55;;
50988;SDS011;37008;52.210;21.112;2023-04-25T05:30:33;12.80;;;9.63;;
50988;SDS011;37008;52.210;21.112;2023-04-25T05:32:59;14.95;;;9.43;;
50988;SDS011;37008;52.210;21.112;2023-04-25T05:35:25;12.32;;;11.00;;
50988;SDS011;37008;52.210;21.112;2023-04-25T05:37:51;16.40;;;10.32;;
50988;SDS011;37008;52.210;21.112;2023-04-25T05:40:16;10.90;;;9.70;;
50988;SDS011;37008;52.210;21.112;2023-04-25T05:42:42;14.57;;;10.40;;
50988;SDS011;37008;52.210;21.112;2023-04-25T05:45:08;13.88;;;10.05;;
50988;SDS011;37008;52.210;21.112;2023-04-25T05:47:34;12.90;;;10.18;;
50988;SDS011;37008;52.210;21.112;2023-04-25T05:50:00;15.35;;;11.10;;
50988;SDS011;37008;52.210;21.112;2023-04-25T05:52:25;14.27;;;10.82;;
50988;SDS011;37008;52.210;21.112;2023-04-25T05:54:51;13.25;;;10.60;;
50988;SDS011;37008;52.210;21.112;2023-04-25T05:57:23;12.18;;;10.18;;
50988;SDS011;37008;52.210;21.112;2023-04-25T05:59:50;11.73;;;9.55;;
50988;SDS011;37008;52.210;21.112;2023-04-25T06:02:16;11.85;;;9.77;;
50988;SDS011;37008;52.210;21.112;2023-04-25T06:04:42;11.73;;;10.50;;
50988;SDS011;37008;52.210;21.112;2023-04-25T06:07:07;11.45;;;10.15;;
50988;SDS011;37008;52.210;21.112;2023-04-25T06:09:33;10.27;;;9.23;;
50988;SDS011;37008;52.210;21.112;2023-04-25T06:11:59;12.05;;;9.93;;
50988;SDS011;37008;52.210;21.112;2023-04-25T06:14:25;10.57;;;9.57;;
50988;SDS011;37008;52.210;21.112;2023-04-25T06:16:51;11.75;;;10.35;;
50988;SDS011;37008;52.210;21.112;2023-04-25T06:19:17;12.13;;;10.15;;
50988;SDS011;37008;52.210;21.112;2023-04-25T06:21:43;11.27;;;9.50;;
50988;SDS011;37008;52.210;21.112;2023-04-25T06:24:09;12.20;;;10.85;;
50988;SDS011;37008;52.210;21.112;2023-04-25T06:26:35;12.30;;;11.07;;
50988;SDS011;37008;52.210;21.112;2023-04-25T06:29:01;13.45;;;11.93;;
50988;SDS011;37008;52.210;21.112;2023-04-25T06:31:26;14.05;;;12.60;;
50988;SDS011;37008;52.210;21.112;2023-04-25T06:33:53;15.70;;;12.70;;
50988;SDS011;37008;52.210;21.112;2023-04-25T06:36:20;19.50;;;14.27;;
50988;SDS011;37008;52.210;21.112;2023-04-25T06:38:50;17.42;;;15.38;;
50988;SDS011;37008;52.210;21.112;2023-04-25T06:41:16;14.65;;;13.25;;
50988;SDS011;37008;52.210;21.112;2023-04-25T06:43:42;16.98;;;15.25;;
50988;SDS011;37008;52.210;21.112;2023-04-25T06:46:07;20.45;;;18.30;;
50988;SDS011;37008;52.210;21.112;2023-04-25T06:48:33;16.90;;;15.07;;
50988;SDS011;37008;52.210;21.112;2023-04-25T06:50:59;23.00;;;18.77;;
50988;SDS011;37008;52.210;21.112;2023-04-25T06:53:24;21.55;;;18.70;;
50988;SDS011;37008;52.210;21.112;2023-04-25T06:55:50;19.20;;;17.20;;
50988;SDS011;37008;52.210;21.112;2023-04-25T06:58:15;16.95;;;14.80;;
50988;SDS011;37008;52.210;21.112;2023-04-25T07:00:42;16.25;;;13.88;;
50988;SDS011;37008;52.210;21.112;2023-04-25T07:03:07;13.70;;;12.38;;
50988;SDS011;37008;52.210;21.112;2023-04-25T07:05:33;14.18;;;12.75;;
50988;SDS011;37008;52.210;21.112;2023-04-25T07:07:58;16.15;;;13.00;;
50988;SDS011;37008;52.210;21.112;2023-04-25T07:10:25;12.85;;;11.13;;
50988;SDS011;37008;52.210;21.112;2023-04-25T07:12:50;14.00;;;12.50;;
50988;SDS011;37008;52.210;21.112;2023-04-25T07:15:16;16.55;;;10.88;;
50988;SDS011;37008;52.210;21.112;2023-04-25T07:17:42;12.43;;;11.23;;
50988;SDS011;37008;52.210;21.112;2023-04-25T07:20:08;11.68;;;10.50;;
50988;SDS011;37008;52.210;21.112;2023-04-25T07:22:34;11.50;;;10.40;;
50988;SDS011;37008;52.210;21.112;2023-04-25T07:25:00;16.52;;;12.18;;
50988;SDS011;37008;52.210;21.112;2023-04-25T07:27:25;14.05;;;11.90;;
50988;SDS011;37008;52.210;21.112;2023-04-25T07:29:51;14.15;;;12.43;;
50988;SDS011;37008;52.210;21.112;2023-04-25T07:32:17;15.82;;;13.88;;
50988;SDS011;37008;52.210;21.112;2023-04-25T07:34:42;13.23;;;12.02;;
50988;SDS011;37008;52.210;21.112;2023-04-25T07:37:08;14.98;;;13.40;;
50988;SDS011;37008;52.210;21.112;2023-04-25T07:39:34;14.27;;;12.68;;
50988;SDS011;37008;52.210;21.112;2023-04-25T07:42:00;13.35;;;12.13;;
50988;SDS011;37008;52.210;21.112;2023-04-25T07:44:26;14.35;;;12.95;;
50988;SDS011;37008;52.210;21.112;2023-04-25T07:46:52;14.60;;;13.13;;
50988;SDS011;37008;52.210;21.112;2023-04-25T07:49:18;14.18;;;12.68;;
50988;SDS011;37008;52.210;21.112;2023-04-25T07:51:43;11.02;;;9.98;;
50988;SDS011;37008;52.210;21.112;2023-04-25T07:54:12;11.45;;;10.38;;
50988;SDS011;37008;52.210;21.112;2023-04-25T07:56:38;13.88;;;12.32;;
50988;SDS011;37008;52.210;21.112;2023-04-25T07:59:04;11.52;;;10.43;;
50988;SDS011;37008;52.210;21.112;2023-04-25T08:01:30;11.13;;;10.02;;
50988;SDS011;37008;52.210;21.112;2023-04-25T08:03:56;10.45;;;9.45;;
50988;SDS011;37008;52.210;21.112;2023-04-25T08:06:21;9.55;;;8.55;;
50988;SDS011;37008;52.210;21.112;2023-04-25T08:08:47;10.02;;;9.00;;
50988;SDS011;37008;52.210;21.112;2023-04-25T08:11:12;11.75;;;7.85;;
50988;SDS011;37008;52.210;21.112;2023-04-25T08:13:38;9.27;;;8.43;;
50988;SDS011;37008;52.210;21.112;2023-04-25T08:16:03;10.05;;;7.45;;
50988;SDS011;37008;52.210;21.112;2023-04-25T08:18:29;8.65;;;7.85;;
50988;SDS011;37008;52.210;21.112;2023-04-25T08:20:55;8.48;;;7.63;;
50988;SDS011;37008;52.210;21.112;2023-04-25T08:23:21;9.25;;;8.13;;
50988;SDS011;37008;52.210;21.112;2023-04-25T08:25:47;8.90;;;8.00;;
50988;SDS011;37008;52.210;21.112;2023-04-25T08:28:12;8.35;;;7.50;;
50988;SDS011;37008;52.210;21.112;2023-04-25T08:30:40;10.70;;;9.25;;
50988;SDS011;37008;52.210;21.112;2023-04-25T08:33:05;13.13;;;11.82;;
50988;SDS011;37008;52.210;21.112;2023-04-25T08:35:31;15.05;;;13.45;;
50988;SDS011;37008;52.210;21.112;2023-04-25T08:37:58;15.20;;;13.60;;
50988;SDS011;37008;52.210;21.112;2023-04-25T08:40:23;15.90;;;14.40;;
50988;SDS011;37008;52.210;21.112;2023-04-25T08:42:55;15.50;;;14.00;;
50988;SDS011;37008;52.210;21.112;2023-04-25T08:45:26;14.27;;;12.95;;
50988;SDS011;37008;52.210;21.112;2023-04-25T08:47:53;13.32;;;11.93;;
50988;SDS011;37008;52.210;21.112;2023-04-25T08:50:22;13.65;;;12.35;;
50988;SDS011;37008;52.210;21.112;2023-04-25T08:52:48;12.52;;;11.32;;
50988;SDS011;37008;52.210;21.112;2023-04-25T08:55:17;12.30;;;10.30;;
50988;SDS011;37008;52.210;21.112;2023-04-25T08:57:44;10.80;;;9.70;;
50988;SDS011;37008;52.210;21.112;2023-04-25T09:00:10;13.38;;;9.48;;
50988;SDS011;37008;52.210;21.112;2023-04-25T09:02:38;12.65;;;8.80;;
50988;SDS011;37008;52.210;21.112;2023-04-25T09:05:04;25.23;;;8.63;;
50988;SDS011;37008;52.210;21.112;2023-04-25T09:07:31;15.52;;;7.22;;
50988;SDS011;37008;52.210;21.112;2023-04-25T09:09:57;8.18;;;7.45;;
50988;SDS011;37008;52.210;21.112;2023-04-25T09:12:26;7.90;;;7.10;;
50988;SDS011;37008;52.210;21.112;2023-04-25T09:17:29;10.63;;;8.63;;
50988;SDS011;37008;52.210;21.112;2023-04-25T09:19:54;11.27;;;8.90;;
50988;SDS011;37008;52.210;21.112;2023-04-25T09:22:30;10.13;;;9.13;;
50988;SDS011;37008;52.210;21.112;2023-04-25T09:24:55;10.60;;;9.55;;
50988;SDS011;37008;52.210;21.112;2023-04-25T09:27:21;10.98;;;9.93;;
50988;SDS011;37008;52.210;21.112;2023-04-25T09:29:56;11.15;;;10.05;;
50988;SDS011;37008;52.210;21.112;2023-04-25T09:32:24;12.75;;;11.45;;
50988;SDS011;37008;52.210;21.112;2023-04-25T09:34:53;12.80;;;10.55;;
50988;SDS011;37008;52.210;21.112;2023-04-25T09:37:21;13.23;;;11.88;;
50988;SDS011;37008;52.210;21.112;2023-04-25T09:39:48;14.77;;;13.35;;
50988;SDS011;37008;52.210;21.112;2023-04-25T09:42:16;14.57;;;13.07;;
50988;SDS011;37008;52.210;21.112;2023-04-25T09:44:43;14.02;;;12.63;;
50988;SDS011;37008;52.210;21.112;2023-04-25T09:47:10;11.70;;;10.50;;
50988;SDS011;37008;52.210;21.112;2023-04-25T09:49:39;12.00;;;10.77;;
50988;SDS011;37008;52.210;21.112;2023-04-25T09:52:08;14.05;;;12.75;;
50988;SDS011;37008;52.210;21.112;2023-04-25T09:54:38;15.05;;;11.90;;
50988;SDS011;37008;52.210;21.112;2023-04-25T09:57:11;15.63;;;12.88;;
50988;SDS011;37008;52.210;21.112;2023-04-25T09:59:39;14.20;;;12.80;;
50988;SDS011;37008;52.210;21.112;2023-04-25T10:02:08;11.77;;;10.65;;
50988;SDS011;37008;52.210;21.112;2023-04-25T10:04:35;14.90;;;13.50;;
50988;SDS011;37008;52.210;21.112;2023-04-25T10:07:03;16.73;;;15.02;;
50988;SDS011;37008;52.210;21.112;2023-04-25T10:09:31;16.05;;;14.55;;
50988;SDS011;37008;52.210;21.112;2023-04-25T10:12:00;15.82;;;14.18;;
50988;SDS011;37008;52.210;21.112;2023-04-25T10:14:28;16.27;;;14.45;;
50988;SDS011;37008;52.210;21.112;2023-04-25T10:16:55;15.68;;;13.43;;
50988;SDS011;37008;52.210;21.112;2023-04-25T10:19:23;14.75;;;13.43;;
50988;SDS011;37008;52.210;21.112;2023-04-25T10:21:50;14.90;;;13.50;;
50988;SDS011;37008;52.210;21.112;2023-04-25T10:24:29;15.30;;;13.77;;
50988;SDS011;37008;52.210;21.112;2023-04-25T10:26:55;16.45;;;14.73;;
50988;SDS011;37008;52.210;21.112;2023-04-25T10:29:25;17.27;;;15.63;;
50988;SDS011;37008;52.210;21.112;2023-04-25T10:31:51;16.40;;;14.70;;
50988;SDS011;37008;52.210;21.112;2023-04-25T10:34:17;17.00;;;15.50;;
50988;SDS011;37008;52.210;21.112;2023-04-25T10:36:48;19.95;;;17.73;;
50988;SDS011;37008;52.210;21.112;2023-04-25T10:39:26;17.38;;;15.68;;
50988;SDS011;37008;52.210;21.112;2023-04-25T10:41:53;19.75;;;17.55;;
50988;SDS011;37008;52.210;21.112;2023-04-25T10:44:27;17.77;;;16.00;;
50988;SDS011;37008;52.210;21.112;2023-04-25T10:46:55;17.13;;;15.63;;
50988;SDS011;37008;52.210;21.112;2023-04-25T10:49:34;18.80;;;17.00;;
50988;SDS011;37008;52.210;21.112;2023-04-25T10:52:24;26.45;;;18.65;;
50988;SDS011;37008;52.210;21.112;2023-04-25T10:54:52;18.15;;;16.45;;
50988;SDS011;37008;52.210;21.112;2023-04-25T11:00:15;19.10;;;17.33;;
50988;SDS011;37008;52.210;21.112;2023-04-25T11:02:43;18.55;;;16.92;;
50988;SDS011;37008;52.210;21.112;2023-04-25T11:07:56;19.98;;;16.85;;
50988;SDS011;37008;52.210;21.112;2023-04-25T11:10:26;18.45;;;16.65;;
50988;SDS011;37008;52.210;21.112;2023-04-25T11:12:53;16.27;;;14.80;;
50988;SDS011;37008;52.210;21.112;2023-04-25T11:15:18;17.38;;;15.57;;
50988;SDS011;37008;52.210;21.112;2023-04-25T11:17:44;15.60;;;14.25;;
50988;SDS011;37008;52.210;21.112;2023-04-25T11:20:11;18.30;;;16.70;;
50988;SDS011;37008;52.210;21.112;2023-04-25T11:22:38;18.52;;;16.63;;
50988;SDS011;37008;52.210;21.112;2023-04-25T11:25:08;17.67;;;15.77;;
50988;SDS011;37008;52.210;21.112;2023-04-25T11:27:37;19.38;;;17.48;;
50988;SDS011;37008;52.210;21.112;2023-04-25T11:30:18;17.80;;;16.17;;
50988;SDS011;37008;52.210;21.112;2023-04-25T11:32:45;14.38;;;12.98;;
50988;SDS011;37008;52.210;21.112;2023-04-25T11:35:11;16.30;;;14.70;;
50988;SDS011;37008;52.210;21.112;2023-04-25T11:37:41;12.75;;;11.65;;
50988;SDS011;37008;52.210;21.112;2023-04-25T11:40:08;14.32;;;13.02;;
50988;SDS011;37008;52.210;21.112;2023-04-25T11:42:36;13.35;;;11.95;;
50988;SDS011;37008;52.210;21.112;2023-04-25T11:45:08;12.02;;;10.82;;
50988;SDS011;37008;52.210;21.112;2023-04-25T11:47:34;13.77;;;9.35;;
50988;SDS011;37008;52.210;21.112;2023-04-25T11:50:01;11.98;;;10.52;;
50988;SDS011;37008;52.210;21.112;2023-04-25T11:52:41;11.13;;;10.02;;
50988;SDS011;37008;52.210;21.112;2023-04-25T11:55:08;10.70;;;9.70;;
50988;SDS011;37008;52.210;21.112;2023-04-25T11:57:35;11.77;;;9.88;;
50988;SDS011;37008;52.210;21.112;2023-04-25T12:00:07;10.90;;;9.80;;
50988;SDS011;37008;52.210;21.112;2023-04-25T12:02:36;9.70;;;8.80;;
50988;SDS011;37008;52.210;21.112;2023-04-25T12:05:02;11.52;;;10.43;;
50988;SDS011;37008;52.210;21.112;2023-04-25T12:07:31;9.52;;;8.60;;
50988;SDS011;37008;52.210;21.112;2023-04-25T12:09:56;9.55;;;8.63;;
50988;SDS011;37008;52.210;21.112;2023-04-25T12:12:26;11.52;;;8.98;;
50988;SDS011;37008;52.210;21.112;2023-04-25T12:14:52;11.45;;;8.95;;
50988;SDS011;37008;52.210;21.112;2023-04-25T12:17:20;11.07;;;9.65;;
50988;SDS011;37008;52.210;21.112;2023-04-25T12:19:47;11.15;;;10.05;;
50988;SDS011;37008;52.210;21.112;2023-04-25T12:22:20;11.27;;;9.30;;
50988;SDS011;37008;52.210;21.112;2023-04-25T12:24:47;12.77;;;8.93;;
50988;SDS011;37008;52.210;21.112;2023-04-25T12:27:14;11.30;;;9.50;;
50988;SDS011;37008;52.210;21.112;2023-04-25T12:29:49;9.93;;;8.93;;
50988;SDS011;37008;52.210;21.112;2023-04-25T12:32:19;9.88;;;8.93;;
50988;SDS011;37008;52.210;21.112;2023-04-25T12:34:45;9.02;;;8.15;;
50988;SDS011;37008;52.210;21.112;2023-04-25T12:37:11;8.70;;;7.82;;
50988;SDS011;37008;52.210;21.112;2023-04-25T12:39:36;8.43;;;7.63;;
50988;SDS011;37008;52.210;21.112;2023-04-25T12:42:02;11.57;;;8.20;;
50988;SDS011;37008;52.210;21.112;2023-04-25T12:44:28;8.98;;;7.68;;
50988;SDS011;37008;52.210;21.112;2023-04-25T12:46:54;10.07;;;8.23;;
50988;SDS011;37008;52.210;21.112;2023-04-25T12:49:20;13.85;;;9.23;;
50988;SDS011;37008;52.210;21.112;2023-04-25T12:51:45;10.43;;;6.55;;
50988;SDS011;37008;52.210;21.112;2023-04-25T12:54:16;8.45;;;6.70;;
50988;SDS011;37008;52.210;21.112;2023-04-25T12:56:42;8.48;;;6.15;;
50988;SDS011;37008;52.210;21.112;2023-04-25T12:59:07;9.10;;;6.22;;
50988;SDS011;37008;52.210;21.112;2023-04-25T13:01:34;6.32;;;5.70;;
50988;SDS011;37008;52.210;21.112;2023-04-25T13:04:00;10.32;;;6.30;;
50988;SDS011;37008;52.210;21.112;2023-04-25T13:06:25;7.05;;;5.53;;
50988;SDS011;37008;52.210;21.112;2023-04-25T13:08:52;5.85;;;5.22;;
50988;SDS011;37008;52.210;21.112;2023-04-25T13:11:17;9.30;;;5.20;;
50988;SDS011;37008;52.210;21.112;2023-04-25T13:13:43;6.45;;;5.50;;
50988;SDS011;37008;52.210;21.112;2023-04-25T13:16:09;7.18;;;5.80;;
50988;SDS011;37008;52.210;21.112;2023-04-25T13:18:35;7.50;;;5.30;;
50988;SDS011;37008;52.210;21.112;2023-04-25T13:21:01;8.02;;;5.82;;
50988;SDS011;37008;52.210;21.112;2023-04-25T13:23:27;6.32;;;4.80;;
50988;SDS011;37008;52.210;21.112;2023-04-25T13:25:54;7.25;;;4.97;;
50988;SDS011;37008;52.210;21.112;2023-04-25T13:28:22;7.72;;;5.07;;
50988;SDS011;37008;52.210;21.112;2023-04-25T13:30:51;5.25;;;4.53;;
50988;SDS011;37008;52.210;21.112;2023-04-25T13:33:17;6.78;;;4.70;;
50988;SDS011;37008;52.210;21.112;2023-04-25T13:35:44;10.43;;;5.07;;
50988;SDS011;37008;52.210;21.112;2023-04-25T13:38:12;5.80;;;4.82;;
50988;SDS011;37008;52.210;21.112;2023-04-25T13:40:38;11.43;;;5.85;;
50988;SDS011;37008;52.210;21.112;2023-04-25T13:43:04;9.35;;;5.60;;
50988;SDS011;37008;52.210;21.112;2023-04-25T13:45:31;7.18;;;5.05;;
50988;SDS011;37008;52.210;21.112;2023-04-25T13:47:57;6.93;;;3.80;;
50988;SDS011;37008;52.210;21.112;2023-04-25T13:50:22;7.10;;;3.50;;
50988;SDS011;37008;52.210;21.112;2023-04-25T13:52:48;3.80;;;2.80;;
50988;SDS011;37008;52.210;21.112;2023-04-25T13:55:14;7.13;;;3.47;;
50988;SDS011;37008;52.210;21.112;2023-04-25T13:57:40;5.15;;;3.47;;
50988;SDS011;37008;52.210;21.112;2023-04-25T14:00:07;7.10;;;3.38;;
50988;SDS011;37008;52.210;21.112;2023-04-25T14:02:36;11.45;;;4.60;;
50988;SDS011;37008;52.210;21.112;2023-04-25T14:05:02;4.70;;;3.80;;
50988;SDS011;37008;52.210;21.112;2023-04-25T14:07:28;4.25;;;3.65;;
50988;SDS011;37008;52.210;21.112;2023-04-25T14:09:55;4.05;;;3.33;;
50988;SDS011;37008;52.210;21.112;2023-04-25T14:12:22;5.10;;;3.92;;
50988;SDS011;37008;52.210;21.112;2023-04-25T14:14:48;4.65;;;3.67;;
50988;SDS011;37008;52.210;21.112;2023-04-25T14:17:13;5.90;;;4.15;;
50988;SDS011;37008;52.210;21.112;2023-04-25T14:19:39;12.85;;;4.53;;